Coolville, Ohio
Current Conditions -  °F | °C
As of 2:53 AM on Thursday 23 Oct 2014 (Local Time) from KPKB Reporting Station
Overcast Overcast  
Wind Chill: 47°   Ceiling: 3900
Heat Index: 47°   Visibility: 10mi
Dew Point: 41°   Wind: 0mph
Humidity: 80%   Direction: NA
Pressure: 30.22"   Gusts: NA
Location:  39.22°N, 81.8°W
Report Text: KPKB 230653Z AUTO 00000KT 10SM SCT023 OVC039 08/05 A3022 RMK AO2 SLP233 T00830050
Loading
Personal Weather Stations






























Interactive Weather Map
Tropical Storm Tracking
New forecast layout! Learn more

10-Day Weather Forecast

Advertisements
Track Severe Weather on mobile